Time;durP1;ratioP1;P1;durP2;ratioP2;P2;SDS_P1;SDS_P2;PMS_P1;PMS_P2;Temp;Humidity;BMP_temperature;BMP_pressure;BME280_temperature;BME280_humidity;BME280_pressure;Samples;Min_cycle;Max_cycle;Signal;HPM_P1;HPM_P2
2022/12/14 00:01:45;;;;;;;29.00;13.30;;;-1.60;75.60;;;;;;5054124;28;20213;-71
2022/12/14 00:04:16;;;;;;;25.98;12.02;;;-1.60;75.60;;;;;;5054281;28;20245;-71
2022/12/14 00:06:46;;;;;;;22.58;12.40;;;-1.60;75.60;;;;;;5057178;28;20294;-70
2022/12/14 00:09:15;;;;;;;27.67;14.77;;;-1.60;75.60;;;;;;5057158;28;20886;-70
2022/12/14 00:11:43;;;;;;;30.23;15.00;;;-1.60;75.60;;;;;;5052175;28;20223;-70
2022/12/14 00:14:11;;;;;;;27.95;14.70;;;-1.60;75.50;;;;;;5053736;28;20619;-70
2022/12/14 00:16:39;;;;;;;33.92;17.02;;;-1.60;75.50;;;;;;5057402;28;20257;-70
2022/12/14 00:19:07;;;;;;;32.22;16.52;;;-1.60;75.50;;;;;;5060248;28;20225;-70
2022/12/14 00:21:35;;;;;;;29.73;14.20;;;-1.60;75.50;;;;;;5057332;28;20678;-70
2022/12/14 00:24:04;;;;;;;25.10;12.00;;;-1.60;75.50;;;;;;5055921;28;20231;-70
2022/12/14 00:26:33;;;;;;;19.52;12.70;;;-1.60;75.60;;;;;;5054234;28;20196;-70
2022/12/14 00:29:02;;;;;;;24.00;12.75;;;-1.60;75.60;;;;;;5054169;28;20281;-70
2022/12/14 00:31:31;;;;;;;18.67;11.02;;;-1.60;75.70;;;;;;5058370;28;20250;-70
2022/12/14 00:33:59;;;;;;;18.88;11.05;;;-1.50;75.70;;;;;;5059309;28;20275;-70
2022/12/14 00:36:30;;;;;;;19.90;11.15;;;-1.50;75.70;;;;;;5053627;28;20207;-70
2022/12/14 00:38:58;;;;;;;18.13;11.15;;;-1.50;75.70;;;;;;5056483;28;20220;-70
2022/12/14 00:41:27;;;;;;;16.92;10.57;;;-1.50;75.60;;;;;;5056585;28;20306;-70
2022/12/14 00:43:55;;;;;;;21.20;12.65;;;-1.50;75.50;;;;;;5056981;28;20290;-70
2022/12/14 00:46:23;;;;;;;20.40;11.57;;;-1.50;75.30;;;;;;5058495;28;20259;-71
2022/12/14 00:48:51;;;;;;;18.65;11.07;;;-1.50;75.20;;;;;;5059921;28;21005;-71
2022/12/14 00:51:19;;;;;;;17.65;11.63;;;-1.50;75.30;;;;;;5059799;28;20201;-71
2022/12/14 00:53:47;;;;;;;18.98;10.65;;;-1.60;75.30;;;;;;5057107;28;20223;-70
2022/12/14 00:56:15;;;;;;;21.13;11.27;;;-1.60;75.30;;;;;;5057369;28;20229;-70
2022/12/14 00:58:50;;;;;;;23.13;12.43;;;-1.60;75.50;;;;;;5058012;28;21020;-70
2022/12/14 01:01:18;;;;;;;22.02;12.35;;;-1.60;75.50;;;;;;5055859;28;20631;-70
2022/12/14 01:03:46;;;;;;;19.85;11.30;;;-1.60;75.50;;;;;;5054745;28;20224;-70
2022/12/14 01:06:16;;;;;;;24.45;12.35;;;-1.60;75.50;;;;;;5058670;28;20203;-70
2022/12/14 01:08:44;;;;;;;20.23;11.73;;;-1.60;75.30;;;;;;5056273;28;20211;-70
2022/12/14 01:11:12;;;;;;;23.90;10.60;;;-1.60;75.30;;;;;;5058361;28;20249;-71
2022/12/14 01:13:41;;;;;;;22.65;11.55;;;-1.60;75.50;;;;;;5061279;28;20346;-71
2022/12/14 01:16:12;;;;;;;21.73;10.32;;;-1.60;75.50;;;;;;5060698;28;20199;-71
2022/12/14 01:18:43;;;;;;;23.77;12.00;;;-1.60;75.50;;;;;;5064735;28;20235;-71
2022/12/14 01:21:13;;;;;;;17.80;9.90;;;-1.60;75.50;;;;;;5053217;28;20209;-71
2022/12/14 01:23:42;;;;;;;21.55;11.07;;;-1.60;75.50;;;;;;5057021;28;20310;-71
2022/12/14 01:26:11;;;;;;;23.90;11.05;;;-1.60;75.50;;;;;;5065520;28;20216;-72
2022/12/14 01:28:39;;;;;;;17.95;10.07;;;-1.60;75.50;;;;;;5055615;28;20811;-71
2022/12/14 01:31:09;;;;;;;18.70;10.32;;;-1.60;75.50;;;;;;5059780;28;20212;-71
2022/12/14 01:33:38;;;;;;;22.30;11.35;;;-1.60;75.50;;;;;;5056387;28;20904;-71
2022/12/14 01:36:09;;;;;;;18.23;10.95;;;-1.60;75.50;;;;;;5057978;28;20192;-70
2022/12/14 01:38:37;;;;;;;19.25;12.43;;;-1.60;75.50;;;;;;5056584;28;20228;-71
2022/12/14 01:41:06;;;;;;;21.00;11.20;;;-1.60;75.50;;;;;;5058014;28;20213;-70
2022/12/14 01:43:49;;;;;;;19.10;10.85;;;-1.60;75.60;;;;;;5060295;28;20219;-71
2022/12/14 01:46:22;;;;;;;18.88;11.25;;;-1.60;75.60;;;;;;5059707;28;20653;-70
2022/12/14 01:48:54;;;;;;;23.95;11.90;;;-1.60;75.60;;;;;;5056171;28;20228;-70
2022/12/14 01:51:24;;;;;;;21.33;10.68;;;-1.60;75.60;;;;;;5057986;28;20250;-71
2022/12/14 01:53:53;;;;;;;19.70;11.32;;;-1.60;75.60;;;;;;5061135;28;20212;-71
2022/12/14 01:56:21;;;;;;;17.88;11.07;;;-1.50;75.60;;;;;;5057471;28;20671;-71
2022/12/14 01:58:49;;;;;;;17.02;10.05;;;-1.50;75.50;;;;;;5060673;28;20267;-70
2022/12/14 02:01:17;;;;;;;19.15;10.50;;;-1.50;75.30;;;;;;5058696;28;20314;-70
2022/12/14 02:03:48;;;;;;;26.70;12.55;;;-1.50;75.30;;;;;;5058332;28;20233;-70
2022/12/14 02:06:21;;;;;;;18.98;11.65;;;-1.50;75.50;;;;;;5057001;28;20951;-70
2022/12/14 02:08:52;;;;;;;21.20;11.80;;;-1.60;75.30;;;;;;5059129;28;20280;-70
2022/12/14 02:11:37;;;;;;;22.27;11.85;;;-1.50;75.60;;;;;;5058379;28;20257;-70
2022/12/14 02:14:05;;;;;;;20.40;9.68;;;-1.50;75.50;;;;;;5060161;28;20231;-70
2022/12/14 02:16:33;;;;;;;25.55;12.50;;;-1.50;75.50;;;;;;5055394;28;20371;-70
2022/12/14 02:19:01;;;;;;;21.92;11.25;;;-1.50;75.50;;;;;;5055565;28;20327;-69
2022/12/14 02:21:47;;;;;;;21.30;10.95;;;-1.50;75.50;;;;;;5056939;28;20677;-70
2022/12/14 02:24:43;;;;;;;19.95;10.95;;;-1.50;75.50;;;;;;5050045;28;20243;-70
2022/12/14 02:27:22;;;;;;;25.40;12.15;;;-1.50;75.50;;;;;;5051041;28;20255;-70
2022/12/14 02:30:03;;;;;;;20.38;11.43;;;-1.50;75.30;;;;;;5055999;28;20268;-69
2022/12/14 02:32:57;;;;;;;24.80;12.57;;;-1.50;75.50;;;;;;5059791;28;20207;-70
2022/12/14 02:35:37;;;;;;;24.88;11.85;;;-1.50;75.50;;;;;;5062306;28;20196;-69
2022/12/14 02:38:15;;;;;;;27.48;12.95;;;-1.50;75.50;;;;;;5055016;28;20215;-69
2022/12/14 02:40:54;;;;;;;27.10;10.38;;;-1.50;75.50;;;;;;5056838;28;20203;-70
2022/12/14 02:43:30;;;;;;;20.27;10.70;;;-1.50;75.30;;;;;;5056136;28;20196;-70
2022/12/14 02:46:07;;;;;;;20.65;11.05;;;-1.50;75.30;;;;;;5058190;28;20207;-70
2022/12/14 02:48:39;;;;;;;23.73;11.65;;;-1.60;75.30;;;;;;5061360;28;20228;-70
2022/12/14 02:51:15;;;;;;;20.77;11.27;;;-1.60;75.30;;;;;;5054566;28;20246;-70
2022/12/14 02:53:47;;;;;;;25.35;12.40;;;-1.60;75.30;;;;;;5054949;28;20313;-70
2022/12/14 02:56:22;;;;;;;23.95;11.88;;;-1.50;75.50;;;;;;5057510;28;20220;-70
2022/12/14 02:58:52;;;;;;;19.45;11.43;;;-1.50;75.30;;;;;;5055187;28;20223;-70
2022/12/14 03:01:25;;;;;;;18.67;11.07;;;-1.60;75.30;;;;;;5057049;28;20216;-70
2022/12/14 03:03:53;;;;;;;24.27;13.60;;;-1.60;75.30;;;;;;5052269;28;20254;-70
2022/12/14 03:06:25;;;;;;;22.55;12.50;;;-1.60;75.30;;;;;;5057089;28;20207;-71
2022/12/14 03:08:57;;;;;;;25.05;13.48;;;-1.50;75.50;;;;;;5055099;28;20232;-70
2022/12/14 03:11:31;;;;;;;22.95;13.07;;;-1.50;75.30;;;;;;5050727;28;20204;-70
2022/12/14 03:14:04;;;;;;;23.88;11.50;;;-1.50;75.30;;;;;;5069882;28;20270;-70
2022/12/14 03:16:39;;;;;;;20.83;12.10;;;-1.50;75.30;;;;;;5059149;28;20204;-71
2022/12/14 03:19:12;;;;;;;25.55;13.07;;;-1.50;75.20;;;;;;5055173;28;20271;-70
2022/12/14 03:21:44;;;;;;;26.00;14.10;;;-1.50;75.20;;;;;;5057932;28;20605;-70
2022/12/14 03:24:18;;;;;;;21.42;13.35;;;-1.50;75.20;;;;;;5058453;28;20199;-69
2022/12/14 03:26:52;;;;;;;36.42;16.70;;;-1.50;75.20;;;;;;5055775;28;20262;-70
2022/12/14 03:29:23;;;;;;;31.17;15.68;;;-1.50;75.20;;;;;;5057067;28;20601;-69
2022/12/14 03:31:54;;;;;;;26.25;13.25;;;-1.50;75.20;;;;;;5057509;28;20216;-70
2022/12/14 03:34:31;;;;;;;25.30;12.40;;;-1.50;75.20;;;;;;5055516;28;20301;-69
2022/12/14 03:37:04;;;;;;;24.13;13.13;;;-1.50;75.20;;;;;;5051851;28;20200;-69
2022/12/14 03:39:35;;;;;;;24.60;13.32;;;-1.50;75.30;;;;;;5054962;28;20203;-69
2022/12/14 03:42:10;;;;;;;27.52;13.38;;;-1.50;75.30;;;;;;5061311;28;20208;-70
2022/12/14 03:44:45;;;;;;;28.20;13.38;;;-1.50;75.30;;;;;;5052603;28;20288;-69
2022/12/14 03:47:34;;;;;;;25.67;14.90;;;-1.50;75.20;;;;;;5057476;28;20228;-70
2022/12/14 03:50:09;;;;;;;24.60;13.82;;;-1.40;75.20;;;;;;5056525;28;20196;-70
2022/12/14 03:52:42;;;;;;;24.15;12.48;;;-1.50;75.10;;;;;;5058761;28;20264;-70
2022/12/14 03:55:23;;;;;;;27.95;14.00;;;-1.50;75.20;;;;;;5054795;28;20692;-70
2022/12/14 03:58:13;;;;;;;29.48;13.65;;;-1.50;75.20;;;;;;5054164;28;20227;-70
2022/12/14 04:00:45;;;;;;;25.50;12.90;;;-1.50;75.20;;;;;;5055936;28;20208;-69
2022/12/14 04:03:22;;;;;;;25.60;13.88;;;-1.50;75.20;;;;;;5053459;28;20254;-71
2022/12/14 04:05:59;;;;;;;28.15;13.48;;;-1.50;75.20;;;;;;5049915;28;20249;-71
2022/12/14 04:08:35;;;;;;;22.70;12.75;;;-1.50;75.30;;;;;;5060042;28;20256;-70
2022/12/14 04:19:39;;;;;;;27.63;14.23;;;-1.50;75.20;;;;;;5066803;28;20212;-70
2022/12/14 04:22:11;;;;;;;25.15;13.50;;;-1.50;75.20;;;;;;5054286;28;20237;-70
2022/12/14 04:27:46;;;;;;;24.60;13.98;;;-1.50;75.10;;;;;;4995558;28;21006;-70
2022/12/14 04:30:14;;;;;;;26.00;13.00;;;-1.50;75.10;;;;;;5040933;28;20219;-69
2022/12/14 04:32:46;;;;;;;29.33;15.25;;;-1.50;75.10;;;;;;5058631;28;20231;-70
2022/12/14 04:35:20;;;;;;;24.30;14.70;;;-1.50;75.20;;;;;;5057131;28;20348;-70
2022/12/14 04:37:51;;;;;;;29.10;15.18;;;-1.50;75.20;;;;;;5057346;28;20223;-70
2022/12/14 04:40:22;;;;;;;29.73;14.40;;;-1.50;75.10;;;;;;5057807;28;20235;-69
2022/12/14 04:42:55;;;;;;;31.80;14.38;;;-1.50;75.20;;;;;;5057876;28;20693;-70
2022/12/14 04:45:27;;;;;;;27.63;13.63;;;-1.50;75.20;;;;;;5054784;28;20195;-71
2022/12/14 04:48:03;;;;;;;30.55;13.80;;;-1.50;75.30;;;;;;5061025;28;20227;-70
2022/12/14 04:50:37;;;;;;;28.38;14.95;;;-1.50;75.30;;;;;;5059396;28;20200;-70
2022/12/14 04:53:10;;;;;;;21.85;11.90;;;-1.50;75.30;;;;;;5078540;28;20276;-71
2022/12/14 04:55:43;;;;;;;23.05;14.57;;;-1.50;75.20;;;;;;5058059;28;20262;-71
2022/12/14 04:58:15;;;;;;;22.63;12.63;;;-1.50;75.20;;;;;;5060385;28;20278;-69
2022/12/14 05:00:58;;;;;;;30.85;17.27;;;-1.50;75.30;;;;;;5061494;28;20208;-70
2022/12/14 05:03:29;;;;;;;27.65;15.45;;;-1.50;75.20;;;;;;5056738;28;20227;-72
2022/12/14 05:06:08;;;;;;;31.15;14.88;;;-1.50;75.30;;;;;;5062905;28;20605;-71
2022/12/14 05:08:54;;;;;;;27.88;14.82;;;-1.50;75.30;;;;;;5061741;28;20807;-73
2022/12/14 05:11:26;;;;;;;27.23;14.18;;;-1.50;75.20;;;;;;5058805;28;20222;-71
2022/12/14 05:14:20;;;;;;;26.75;14.25;;;-1.50;75.30;;;;;;5060559;28;21033;-70
2022/12/14 05:16:49;;;;;;;26.58;14.95;;;-1.40;75.40;;;;;;5064819;28;20775;-71
2022/12/14 05:19:17;;;;;;;28.85;14.10;;;-1.40;75.40;;;;;;5062098;28;20749;-71
2022/12/14 05:21:47;;;;;;;23.40;14.25;;;-1.30;75.30;;;;;;5055293;28;20258;-71
2022/12/14 05:24:16;;;;;;;26.45;13.15;;;-1.30;75.30;;;;;;5057739;28;20262;-70
2022/12/14 05:26:45;;;;;;;27.05;13.90;;;-1.40;75.20;;;;;;5062239;28;20234;-72
2022/12/14 05:29:15;;;;;;;27.73;14.77;;;-1.40;75.30;;;;;;5063567;28;21038;-70
2022/12/14 05:31:43;;;;;;;35.13;14.90;;;-1.30;75.20;;;;;;5060851;28;20510;-71
2022/12/14 05:34:17;;;;;;;27.88;14.25;;;-1.30;75.30;;;;;;5058952;28;20213;-71
2022/12/14 05:36:46;;;;;;;27.20;15.30;;;-1.40;75.30;;;;;;5059255;28;20214;-69
2022/12/14 05:39:15;;;;;;;34.97;19.05;;;-1.30;75.30;;;;;;5063392;28;20623;-71
2022/12/14 05:41:44;;;;;;;48.95;23.42;;;-1.30;75.30;;;;;;5059851;28;20242;-71
2022/12/14 05:44:12;;;;;;;38.97;20.67;;;-1.30;75.30;;;;;;5059388;28;20191;-71
2022/12/14 05:46:39;;;;;;;50.30;24.75;;;-1.30;75.30;;;;;;5056646;28;20212;-71
2022/12/14 05:49:08;;;;;;;38.92;21.02;;;-1.20;75.30;;;;;;5057554;28;20232;-70
2022/12/14 05:51:36;;;;;;;28.70;15.55;;;-1.20;75.40;;;;;;5057956;28;20295;-71
2022/12/14 05:54:05;;;;;;;35.70;18.50;;;-1.20;75.30;;;;;;5059228;28;20208;-70
2022/12/14 05:56:33;;;;;;;25.70;13.18;;;-1.20;75.40;;;;;;5059595;28;20680;-70
2022/12/14 05:59:02;;;;;;;24.00;13.85;;;-1.20;75.40;;;;;;5057009;28;20278;-70
2022/12/14 06:01:30;;;;;;;25.65;13.80;;;-1.10;75.30;;;;;;5058335;28;20188;-70
2022/12/14 06:03:59;;;;;;;28.42;14.40;;;-1.10;75.30;;;;;;5054693;28;20216;-70
2022/12/14 06:06:27;;;;;;;25.13;14.52;;;-1.10;75.20;;;;;;5053835;28;20192;-71
2022/12/14 06:08:55;;;;;;;36.45;17.77;;;-1.10;75.20;;;;;;5056341;28;20645;-70
2022/12/14 06:11:24;;;;;;;32.67;16.23;;;-1.10;75.20;;;;;;5056979;28;20204;-71
2022/12/14 06:13:52;;;;;;;27.00;14.15;;;-1.10;75.20;;;;;;5058692;28;20205;-69
2022/12/14 06:16:22;;;;;;;28.58;16.85;;;-1.20;75.00;;;;;;5057422;28;21194;-70
2022/12/14 06:18:51;;;;;;;28.00;14.77;;;-1.20;75.10;;;;;;5058498;28;20228;-70
2022/12/14 06:21:21;;;;;;;23.55;13.68;;;-1.20;75.10;;;;;;5057310;28;20605;-69
2022/12/14 06:23:49;;;;;;;44.72;21.80;;;-1.20;75.10;;;;;;5055788;28;20236;-70
2022/12/14 06:26:17;;;;;;;32.60;17.58;;;-1.20;75.20;;;;;;5058995;28;20674;-70
2022/12/14 06:28:47;;;;;;;40.88;20.50;;;-1.20;75.10;;;;;;5055783;28;20232;-70
2022/12/14 06:31:16;;;;;;;31.80;13.80;;;-1.20;75.10;;;;;;5061640;28;20609;-70
2022/12/14 06:33:45;;;;;;;24.25;13.15;;;-1.20;75.00;;;;;;5059353;28;20208;-71
2022/12/14 06:36:17;;;;;;;24.83;12.95;;;-1.20;75.00;;;;;;5055418;28;20232;-71
2022/12/14 06:38:46;;;;;;;24.13;13.40;;;-1.20;75.00;;;;;;5057019;28;21003;-71
2022/12/14 06:41:13;;;;;;;23.73;13.27;;;-1.20;75.00;;;;;;5056921;28;20204;-71
2022/12/14 06:43:42;;;;;;;50.70;24.33;;;-1.20;75.00;;;;;;5056452;28;20529;-69
2022/12/14 06:46:13;;;;;;;34.10;16.33;;;-1.20;74.90;;;;;;5056579;28;20204;-70
2022/12/14 06:48:43;;;;;;;35.63;16.75;;;-1.20;75.00;;;;;;5058303;28;20231;-70
2022/12/14 06:51:11;;;;;;;28.23;15.13;;;-1.20;75.00;;;;;;5058503;28;20212;-70
2022/12/14 06:53:39;;;;;;;39.53;19.02;;;-1.20;75.00;;;;;;5059851;28;20240;-69
2022/12/14 06:56:08;;;;;;;48.95;22.52;;;-1.20;75.10;;;;;;5058045;28;20227;-70
2022/12/14 06:58:36;;;;;;;31.58;16.67;;;-1.20;74.80;;;;;;5050087;28;20668;-72
2022/12/14 07:01:06;;;;;;;22.73;13.05;;;-1.20;74.90;;;;;;5053916;28;20680;-71
2022/12/14 07:03:35;;;;;;;20.67;12.30;;;-1.20;75.00;;;;;;5050949;28;20285;-72
2022/12/14 07:06:04;;;;;;;25.42;14.35;;;-1.20;74.90;;;;;;5054926;28;20200;-71
2022/12/14 07:08:35;;;;;;;27.52;15.05;;;-1.20;74.90;;;;;;5055263;28;20227;-71
2022/12/14 07:11:03;;;;;;;33.72;13.60;;;-1.20;74.80;;;;;;5053554;28;20231;-70
2022/12/14 07:13:31;;;;;;;31.75;14.77;;;-1.20;74.80;;;;;;5054685;28;20706;-72
2022/12/14 07:16:00;;;;;;;29.92;16.20;;;-1.30;74.80;;;;;;5058285;28;20223;-71
2022/12/14 07:18:29;;;;;;;29.13;14.65;;;-1.20;74.80;;;;;;5057908;28;20247;-71
2022/12/14 07:21:00;;;;;;;33.35;18.65;;;-1.20;74.90;;;;;;5061590;28;20204;-72
2022/12/14 07:23:30;;;;;;;34.03;15.07;;;-1.20;74.90;;;;;;5058289;28;20193;-71
2022/12/14 07:26:01;;;;;;;26.45;14.80;;;-1.20;75.00;;;;;;5056641;28;20204;-70
2022/12/14 07:28:29;;;;;;;37.17;16.88;;;-1.20;74.80;;;;;;5055938;28;20236;-71
2022/12/14 07:30:58;;;;;;;49.92;23.00;;;-1.20;74.80;;;;;;5054603;28;20200;-69
2022/12/14 07:33:28;;;;;;;32.13;15.73;;;-1.20;74.60;;;;;;5055158;28;20200;-69
2022/12/14 07:36:04;;;;;;;27.88;15.35;;;-1.20;74.60;;;;;;5054724;28;20208;-69
2022/12/14 07:38:33;;;;;;;35.92;18.80;;;-1.20;74.60;;;;;;5054289;28;20216;-70
2022/12/14 07:41:05;;;;;;;42.47;23.35;;;-1.20;74.60;;;;;;5072502;28;20236;-69
2022/12/14 07:43:33;;;;;;;40.10;21.25;;;-1.20;74.60;;;;;;5055776;28;20200;-70
2022/12/14 07:46:04;;;;;;;28.48;13.40;;;-1.20;74.60;;;;;;5055570;28;20196;-70
2022/12/14 07:48:32;;;;;;;26.08;14.85;;;-1.20;74.60;;;;;;5059051;28;20282;-70
2022/12/14 07:51:07;;;;;;;21.75;13.52;;;-1.20;74.80;;;;;;5055586;28;20669;-70
2022/12/14 07:53:36;;;;;;;25.88;14.90;;;-1.20;74.60;;;;;;5055790;28;20257;-70
2022/12/14 07:56:05;;;;;;;27.15;15.38;;;-1.20;74.80;;;;;;5056860;28;20228;-71
2022/12/14 07:58:34;;;;;;;26.35;15.10;;;-1.20;74.90;;;;;;5053766;28;20254;-69
2022/12/14 08:01:11;;;;;;;34.45;16.90;;;-1.20;74.90;;;;;;5055684;28;20313;-71
2022/12/14 08:03:40;;;;;;;40.30;17.70;;;-1.10;74.90;;;;;;5056301;28;20242;-69
2022/12/14 08:06:11;;;;;;;36.95;18.42;;;-1.10;75.00;;;;;;5057726;28;20191;-70
2022/12/14 08:08:40;;;;;;;36.20;18.40;;;-1.10;74.90;;;;;;5053239;28;20224;-70
2022/12/14 08:11:08;;;;;;;25.50;15.57;;;-1.10;74.90;;;;;;5052654;28;20200;-70
2022/12/14 08:13:38;;;;;;;26.27;16.25;;;-1.10;74.90;;;;;;5058250;28;20257;-69
2022/12/14 08:16:08;;;;;;;26.88;15.43;;;-1.10;74.90;;;;;;5054867;28;20211;-69
2022/12/14 08:18:36;;;;;;;26.33;14.52;;;-1.20;75.10;;;;;;5069358;28;20339;-69
2022/12/14 08:21:06;;;;;;;32.20;18.35;;;-1.20;75.00;;;;;;5052771;28;20200;-70
2022/12/14 08:23:36;;;;;;;31.58;14.13;;;-1.20;75.10;;;;;;5059464;28;20204;-69
2022/12/14 08:26:05;;;;;;;30.45;15.45;;;-1.10;75.20;;;;;;5056334;28;20218;-69
2022/12/14 08:28:35;;;;;;;27.15;13.73;;;-1.10;75.20;;;;;;5062288;28;20219;-70
2022/12/14 08:31:05;;;;;;;28.88;15.20;;;-1.10;75.20;;;;;;5057037;28;20281;-69
2022/12/14 08:33:39;;;;;;;29.02;13.45;;;-1.10;75.20;;;;;;5055630;28;20207;-71
2022/12/14 08:36:09;;;;;;;29.92;14.57;;;-1.10;75.20;;;;;;5054221;28;20236;-70
2022/12/14 08:38:39;;;;;;;33.38;18.23;;;-1.10;75.20;;;;;;5055829;28;20232;-70
2022/12/14 08:41:09;;;;;;;31.50;17.42;;;-1.10;75.20;;;;;;5056237;28;20296;-70
2022/12/14 08:43:37;;;;;;;28.65;16.88;;;-1.10;75.30;;;;;;5060679;28;20215;-70
2022/12/14 08:46:08;;;;;;;33.70;18.10;;;-1.10;75.30;;;;;;5053385;28;20200;-70
2022/12/14 08:48:36;;;;;;;33.45;17.98;;;-1.00;75.40;;;;;;5070886;28;20236;-70
2022/12/14 08:51:05;;;;;;;29.88;16.05;;;-1.00;75.40;;;;;;5057018;28;20872;-70
2022/12/14 08:53:34;;;;;;;23.85;14.32;;;-1.00;75.40;;;;;;5054948;28;20204;-71
2022/12/14 08:56:07;;;;;;;28.20;15.82;;;-1.00;75.30;;;;;;5058481;28;20255;-70
2022/12/14 08:58:35;;;;;;;31.65;17.40;;;-1.00;75.30;;;;;;5058019;28;20760;-69
2022/12/14 09:01:04;;;;;;;33.13;16.52;;;-1.00;75.50;;;;;;5059855;28;20206;-70
2022/12/14 09:03:32;;;;;;;30.00;16.33;;;-1.00;75.50;;;;;;5060662;28;20278;-70
2022/12/14 09:06:05;;;;;;;31.60;17.20;;;-0.90;75.50;;;;;;5057134;28;20211;-70
2022/12/14 09:08:35;;;;;;;27.55;16.25;;;-0.90;75.60;;;;;;5059176;28;21022;-70
2022/12/14 09:11:05;;;;;;;39.60;19.80;;;-0.90;75.70;;;;;;5058891;28;20304;-70
2022/12/14 09:13:33;;;;;;;28.55;16.45;;;-0.90;75.60;;;;;;5059276;28;20214;-72
2022/12/14 09:16:04;;;;;;;31.55;19.10;;;-0.90;75.70;;;;;;5057926;28;20211;-71
2022/12/14 09:18:33;;;;;;;30.08;16.50;;;-0.80;75.80;;;;;;5062179;28;20228;-71
2022/12/14 09:21:01;;;;;;;32.30;17.65;;;-0.90;75.70;;;;;;5058150;28;20207;-71
2022/12/14 09:23:31;;;;;;;40.63;20.05;;;-0.90;75.70;;;;;;5058400;28;20235;-71
2022/12/14 09:26:02;;;;;;;31.38;16.75;;;-0.80;75.80;;;;;;5059166;28;20275;-70
2022/12/14 09:28:32;;;;;;;28.20;15.07;;;-0.80;75.90;;;;;;5057459;28;20228;-71
2022/12/14 09:31:02;;;;;;;27.13;16.60;;;-0.80;75.70;;;;;;5056378;28;20225;-70
2022/12/14 09:33:30;;;;;;;25.92;16.27;;;-0.80;75.80;;;;;;5055806;28;20205;-70
2022/12/14 09:36:01;;;;;;;28.73;16.15;;;-0.80;75.70;;;;;;5054973;28;20244;-71
2022/12/14 09:38:31;;;;;;;29.90;16.00;;;-0.70;75.90;;;;;;5075452;28;20228;-72
2022/12/14 09:41:07;;;;;;;32.38;17.60;;;-0.70;75.90;;;;;;5057557;28;20204;-70
2022/12/14 09:43:42;;;;;;;31.80;17.92;;;-0.70;76.00;;;;;;5076067;28;20207;-70
2022/12/14 09:46:21;;;;;;;30.23;16.58;;;-0.70;75.90;;;;;;5059914;28;20212;-71
2022/12/14 09:48:50;;;;;;;32.45;17.00;;;-0.70;75.90;;;;;;5057843;28;20215;-71
2022/12/14 09:51:22;;;;;;;35.85;18.15;;;-0.70;76.40;;;;;;5060743;28;20196;-70
2022/12/14 09:53:57;;;;;;;31.73;16.83;;;-0.70;76.00;;;;;;5056595;28;20201;-70
2022/12/14 09:56:30;;;;;;;30.45;15.90;;;-0.70;76.10;;;;;;5061297;28;20232;-70
2022/12/14 09:59:01;;;;;;;36.30;19.90;;;-0.70;76.10;;;;;;5057736;28;20311;-70
2022/12/14 10:01:53;;;;;;;38.97;19.92;;;-0.70;76.10;;;;;;5057011;28;20725;-70
2022/12/14 10:04:52;;;;;;;38.85;20.50;;;-0.70;76.30;;;;;;5053777;28;20201;-70
2022/12/14 10:07:30;;;;;;;38.63;19.10;;;-0.70;76.30;;;;;;5057137;28;20221;-70
2022/12/14 10:10:09;;;;;;;36.13;18.55;;;-0.80;76.30;;;;;;5053403;28;20220;-71
2022/12/14 10:12:53;;;;;;;32.33;17.85;;;-0.80;76.40;;;;;;5056767;28;20204;-69
2022/12/14 10:15:29;;;;;;;38.05;19.30;;;-0.80;76.50;;;;;;5055884;28;20659;-71
2022/12/14 10:18:19;;;;;;;32.28;19.45;;;-0.80;76.50;;;;;;5059773;28;20227;-71
2022/12/14 10:21:13;;;;;;;37.45;16.58;;;-0.80;76.60;;;;;;5057811;28;20720;-71
2022/12/14 10:23:47;;;;;;;45.35;20.00;;;-0.80;76.80;;;;;;5054789;28;20197;-70
2022/12/14 10:26:19;;;;;;;29.38;17.73;;;-0.80;76.60;;;;;;5051680;28;20900;-70
2022/12/14 10:28:51;;;;;;;28.73;16.83;;;-0.80;76.70;;;;;;5056686;28;20361;-70
2022/12/14 10:31:35;;;;;;;31.55;17.48;;;-0.70;76.80;;;;;;5075494;28;20203;-71
2022/12/14 10:34:16;;;;;;;31.83;16.75;;;-0.80;76.80;;;;;;5059376;28;20231;-71
2022/12/14 10:36:52;;;;;;;28.98;16.55;;;-0.80;76.90;;;;;;5058233;28;20696;-70
2022/12/14 10:39:26;;;;;;;32.60;16.17;;;-0.80;76.80;;;;;;5059407;28;20228;-70
2022/12/14 10:42:01;;;;;;;30.77;15.15;;;-0.80;77.10;;;;;;5056481;28;20238;-70
2022/12/14 10:44:38;;;;;;;27.20;15.02;;;-0.80;77.20;;;;;;5057654;28;20216;-70
2022/12/14 10:47:16;;;;;;;33.25;17.15;;;-0.80;77.20;;;;;;5060111;28;20192;-70
2022/12/14 10:49:50;;;;;;;31.40;15.55;;;-0.70;77.20;;;;;;5056438;28;20208;-70
2022/12/14 10:52:21;;;;;;;25.88;15.45;;;-0.80;77.30;;;;;;5058760;28;20199;-70
2022/12/14 10:54:53;;;;;;;29.50;15.93;;;-0.80;77.20;;;;;;5057785;28;20208;-71
2022/12/14 10:57:23;;;;;;;30.42;17.50;;;-0.80;77.30;;;;;;5055997;28;20281;-69
2022/12/14 10:59:52;;;;;;;31.92;17.80;;;-0.80;77.50;;;;;;5056423;28;20200;-70
2022/12/14 11:02:39;;;;;;;28.95;16.33;;;-0.80;77.50;;;;;;5057501;28;20209;-70
2022/12/14 11:05:19;;;;;;;34.17;18.88;;;-0.70;77.50;;;;;;5054982;28;20670;-70
2022/12/14 11:07:48;;;;;;;27.73;16.42;;;-0.70;77.60;;;;;;5054373;28;20230;-70
2022/12/14 11:10:18;;;;;;;31.75;17.25;;;-0.70;77.80;;;;;;5058468;28;20208;-70
2022/12/14 11:13:00;;;;;;;39.40;17.60;;;-0.60;77.70;;;;;;5058496;28;20204;-69
2022/12/14 11:15:33;;;;;;;29.15;15.95;;;-0.60;77.80;;;;;;5058216;28;20617;-69
2022/12/14 11:18:06;;;;;;;36.47;18.95;;;-0.60;77.70;;;;;;5056011;28;20255;-71
2022/12/14 11:20:34;;;;;;;39.17;22.00;;;-0.60;77.60;;;;;;5056565;28;20284;-71
2022/12/14 11:23:16;;;;;;;35.97;19.83;;;-0.60;77.80;;;;;;5057512;28;20204;-70
2022/12/14 11:25:47;;;;;;;35.45;19.83;;;-0.50;77.80;;;;;;5048686;28;20623;-69
2022/12/14 11:28:22;;;;;;;33.67;19.30;;;-0.50;77.90;;;;;;5056711;28;20283;-70
2022/12/14 11:30:57;;;;;;;39.10;20.17;;;-0.60;78.00;;;;;;5052753;28;20199;-70
2022/12/14 11:33:32;;;;;;;38.50;20.50;;;-0.60;78.00;;;;;;5055877;28;20779;-69
2022/12/14 11:36:00;;;;;;;37.00;20.33;;;-0.50;78.30;;;;;;5057240;28;20212;-69
2022/12/14 11:38:29;;;;;;;50.22;24.40;;;-0.60;78.60;;;;;;5057193;28;20234;-69
2022/12/14 11:41:01;;;;;;;46.22;24.08;;;-0.50;78.50;;;;;;5056976;28;20232;-69
2022/12/14 11:43:38;;;;;;;51.65;26.95;;;-0.50;78.60;;;;;;5055674;28;20204;-70
2022/12/14 11:46:07;;;;;;;48.33;23.77;;;-0.40;78.60;;;;;;5056217;28;20219;-70
2022/12/14 11:48:45;;;;;;;61.40;29.30;;;-0.30;78.70;;;;;;5054987;28;20227;-69
2022/12/14 11:51:13;;;;;;;44.65;23.40;;;-0.20;78.80;;;;;;5054693;28;20206;-71
2022/12/14 11:53:42;;;;;;;132.60;51.05;;;-0.20;78.50;;;;;;5060237;28;20207;-68
2022/12/14 11:56:15;;;;;;;90.68;34.85;;;-0.20;78.70;;;;;;5061113;28;20211;-70
2022/12/14 11:58:48;;;;;;;48.20;25.80;;;-0.20;78.50;;;;;;5056892;28;20223;-69
2022/12/14 12:01:19;;;;;;;47.55;24.90;;;-0.20;78.60;;;;;;5054044;28;20192;-69
2022/12/14 12:03:51;;;;;;;48.90;25.92;;;-0.20;78.70;;;;;;5055485;28;20203;-70
2022/12/14 12:06:22;;;;;;;44.20;24.00;;;-0.20;78.60;;;;;;5071985;28;20204;-69
2022/12/14 12:08:56;;;;;;;47.75;25.58;;;-0.10;78.80;;;;;;5055291;28;20642;-70
2022/12/14 12:11:28;;;;;;;53.88;27.15;;;-0.10;78.70;;;;;;5054477;28;20283;-70
2022/12/14 12:13:59;;;;;;;58.50;27.67;;;-0.10;78.70;;;;;;5051599;28;20188;-70
2022/12/14 12:16:29;;;;;;;45.53;20.83;;;0.00;78.90;;;;;;5069970;28;20650;-70
2022/12/14 12:19:05;;;;;;;80.22;35.40;;;0.10;79.00;;;;;;5055903;28;20237;-69
2022/12/14 12:21:43;;;;;;;69.35;31.77;;;0.10;78.90;;;;;;5034844;28;20244;-69
2022/12/14 12:24:18;;;;;;;61.58;30.77;;;0.20;79.10;;;;;;4148755;28;10000705;-68
2022/12/14 12:26:50;;;;;;;49.90;25.60;;;0.30;78.80;;;;;;5046954;28;20572;-70
2022/12/14 12:29:25;;;;;;;42.08;22.85;;;0.40;79.00;;;;;;5042293;28;20752;-66
2022/12/14 12:31:57;;;;;;;50.88;23.02;;;0.40;78.70;;;;;;5041975;28;20209;-67
2022/12/14 12:34:31;;;;;;;29.48;16.20;;;0.40;78.60;;;;;;5043087;28;20206;-66
2022/12/14 12:37:02;;;;;;;39.10;19.63;;;0.40;78.60;;;;;;5043229;28;20201;-66
2022/12/14 12:39:58;;;;;;;48.42;24.77;;;0.40;78.60;;;;;;5040793;28;20220;-66
2022/12/14 12:42:36;;;;;;;37.00;20.73;;;0.40;78.60;;;;;;5039756;28;20641;-66
2022/12/14 12:45:12;;;;;;;47.83;23.30;;;0.40;78.60;;;;;;5040775;28;20196;-66
2022/12/14 12:47:43;;;;;;;32.28;17.40;;;0.40;78.70;;;;;;5034952;28;20775;-66
2022/12/14 12:50:19;;;;;;;37.63;19.42;;;0.40;78.60;;;;;;5040379;28;20204;-65
2022/12/14 12:52:55;;;;;;;35.70;20.98;;;0.40;78.50;;;;;;5033840;28;20280;-66
2022/12/14 12:55:34;;;;;;;35.97;18.67;;;0.40;78.50;;;;;;4172668;28;10000337;-67
2022/12/14 12:58:08;;;;;;;30.67;16.40;;;0.30;78.40;;;;;;5061053;28;20215;-65
2022/12/14 13:00:37;;;;;;;36.72;19.60;;;0.30;78.40;;;;;;5059878;28;20760;-65
2022/12/14 13:03:12;;;;;;;32.08;17.15;;;0.30;78.50;;;;;;5069368;28;20199;-66
2022/12/14 13:05:41;;;;;;;36.22;18.10;;;0.20;78.50;;;;;;5057373;28;20203;-66